Time;durP1;ratioP1;P1;durP2;ratioP2;P2;SDS_P1;SDS_P2;PMS_P1;PMS_P2;Temp;Humidity;BMP_temperature;BMP_pressure;BME280_temperature;BME280_humidity;BME280_pressure;Samples;Min_cycle;Max_cycle;Signal;HPM_P1;HPM_P2
2023/07/27 00:01:03;;;;;;;6.90;3.40;;;;;;;;;;5113870;28;20020;-28
2023/07/27 00:03:28;;;;;;;7.03;3.60;;;;;;;;;;5113473;28;20249;-28
2023/07/27 00:05:53;;;;;;;5.70;3.37;;;;;;;;;;5113572;28;20289;-27
2023/07/27 00:08:18;;;;;;;8.93;3.40;;;;;;;;;;5113558;28;20609;-27
2023/07/27 00:10:44;;;;;;;8.68;3.50;;;;;;;;;;5113851;28;20746;-27
2023/07/27 00:13:09;;;;;;;7.60;3.50;;;;;;;;;;5113524;28;20050;-27
2023/07/27 00:15:34;;;;;;;8.33;3.80;;;;;;;;;;5113523;28;20253;-27
2023/07/27 00:17:59;;;;;;;6.55;3.63;;;;;;;;;;5113951;28;20693;-28
2023/07/27 00:20:24;;;;;;;5.97;3.23;;;;;;;;;;5113772;28;20383;-27
2023/07/27 00:22:50;;;;;;;8.77;3.30;;;;;;;;;;5113416;28;20325;-28
2023/07/27 00:25:15;;;;;;;5.00;3.23;;;;;;;;;;5115842;28;20012;-27
2023/07/27 00:27:40;;;;;;;6.80;3.30;;;;;;;;;;5117328;28;20253;-27
2023/07/27 00:30:06;;;;;;;9.10;3.20;;;;;;;;;;5117582;28;20073;-27
2023/07/27 00:32:31;;;;;;;8.80;3.67;;;;;;;;;;5117206;28;20319;-27
2023/07/27 00:34:56;;;;;;;7.13;3.43;;;;;;;;;;5117161;28;20107;-27
2023/07/27 00:37:21;;;;;;;5.70;3.28;;;;;;;;;;5117097;28;20032;-27
2023/07/27 00:39:46;;;;;;;5.70;3.13;;;;;;;;;;5117050;28;20023;-27
2023/07/27 00:42:12;;;;;;;8.75;3.03;;;;;;;;;;5117011;28;20065;-27
2023/07/27 00:44:37;;;;;;;7.53;3.60;;;;;;;;;;5117310;28;20015;-27
2023/07/27 00:47:02;;;;;;;7.07;3.57;;;;;;;;;;5116874;28;20016;-26
2023/07/27 00:49:28;;;;;;;6.68;3.70;;;;;;;;;;5116958;28;20265;-26
2023/07/27 00:51:54;;;;;;;7.25;3.67;;;;;;;;;;5116832;28;20022;-26
2023/07/27 00:54:19;;;;;;;7.28;4.20;;;;;;;;;;5117393;28;20430;-26
2023/07/27 00:56:45;;;;;;;9.02;4.20;;;;;;;;;;5116728;28;20011;-27
2023/07/27 00:59:10;;;;;;;10.05;4.05;;;;;;;;;;5098243;28;20016;-26
2023/07/27 01:01:35;;;;;;;10.55;4.55;;;;;;;;;;5117676;28;20500;-27
2023/07/27 01:04:01;;;;;;;9.25;4.80;;;;;;;;;;5116886;28;20077;-26
2023/07/27 01:06:27;;;;;;;8.75;4.40;;;;;;;;;;5116853;28;20427;-26
2023/07/27 01:08:52;;;;;;;10.32;5.55;;;;;;;;;;5116759;28;20030;-26
2023/07/27 01:11:17;;;;;;;11.35;4.60;;;;;;;;;;5116612;28;20462;-26
2023/07/27 01:13:48;;;;;;;10.43;5.20;;;;;;;;;;5116303;28;20470;-27
2023/07/27 01:16:17;;;;;;;9.57;4.90;;;;;;;;;;5116344;28;20645;-27
2023/07/27 01:19:11;;;;;;;10.85;5.22;;;;;;;;;;5116170;28;20324;-27
2023/07/27 01:21:39;;;;;;;10.05;5.57;;;;;;;;;;5094038;28;20119;-27
2023/07/27 01:24:23;;;;;;;12.82;5.32;;;;;;;;;;5116036;28;20027;-27
2023/07/27 01:27:07;;;;;;;11.50;5.68;;;;;;;;;;5116634;28;20055;-27
2023/07/27 01:29:55;;;;;;;10.80;5.72;;;;;;;;;;5116559;28;20019;-26
2023/07/27 01:32:20;;;;;;;10.75;5.63;;;;;;;;;;5116524;28;20415;-27
2023/07/27 01:34:47;;;;;;;10.77;5.85;;;;;;;;;;5116035;28;20047;-27
2023/07/27 01:37:15;;;;;;;10.02;5.63;;;;;;;;;;5115583;28;20031;-27
2023/07/27 01:39:42;;;;;;;10.55;5.97;;;;;;;;;;5115826;28;20034;-27
2023/07/27 01:42:11;;;;;;;13.40;5.90;;;;;;;;;;5116338;28;20007;-27
2023/07/27 01:44:36;;;;;;;13.75;6.18;;;;;;;;;;5115821;28;20024;-27
2023/07/27 01:47:02;;;;;;;10.05;5.75;;;;;;;;;;5116246;28;20068;-27
2023/07/27 01:49:28;;;;;;;11.02;5.97;;;;;;;;;;5115639;28;20100;-27
2023/07/27 01:51:54;;;;;;;10.13;5.63;;;;;;;;;;5116155;28;20016;-27
2023/07/27 01:54:19;;;;;;;10.15;5.88;;;;;;;;;;5115485;28;20015;-27
2023/07/27 01:56:45;;;;;;;9.95;5.20;;;;;;;;;;5115423;28;20024;-27
2023/07/27 01:59:10;;;;;;;9.95;5.05;;;;;;;;;;5115694;28;20069;-27
2023/07/27 02:01:36;;;;;;;10.38;4.93;;;;;;;;;;5115381;28;20508;-27
2023/07/27 02:04:01;;;;;;;8.88;5.00;;;;;;;;;;5115603;28;20102;-27
2023/07/27 02:06:26;;;;;;;9.25;5.00;;;;;;;;;;5115913;28;20090;-27
2023/07/27 02:08:52;;;;;;;9.43;4.43;;;;;;;;;;5097057;28;20117;-27
2023/07/27 02:11:19;;;;;;;11.98;5.05;;;;;;;;;;5115497;28;20030;-27
2023/07/27 02:13:51;;;;;;;11.15;4.78;;;;;;;;;;5115707;28;20015;-27
2023/07/27 02:16:36;;;;;;;9.68;4.50;;;;;;;;;;5115433;28;20034;-27
2023/07/27 02:19:01;;;;;;;9.27;4.20;;;;;;;;;;5115244;28;20023;-27
2023/07/27 02:21:27;;;;;;;8.70;4.32;;;;;;;;;;5115295;28;20020;-27
2023/07/27 02:23:53;;;;;;;8.90;4.43;;;;;;;;;;5114890;28;20027;-26
2023/07/27 02:26:18;;;;;;;10.38;4.78;;;;;;;;;;5114915;28;20023;-26
2023/07/27 02:28:43;;;;;;;8.40;4.25;;;;;;;;;;5114883;28;20019;-26
2023/07/27 02:31:08;;;;;;;9.15;4.55;;;;;;;;;;5115077;28;20031;-26
2023/07/27 02:33:34;;;;;;;9.70;5.07;;;;;;;;;;5114823;28;20027;-26
2023/07/27 02:35:59;;;;;;;8.80;4.95;;;;;;;;;;5115303;28;20261;-27
2023/07/27 02:38:24;;;;;;;9.35;4.68;;;;;;;;;;5114492;28;20128;-27
2023/07/27 02:40:50;;;;;;;8.80;4.13;;;;;;;;;;5115261;28;20011;-27
2023/07/27 02:43:15;;;;;;;8.60;4.30;;;;;;;;;;5114850;28;20796;-27
2023/07/27 02:45:40;;;;;;;7.60;3.83;;;;;;;;;;5114558;28;20023;-27
2023/07/27 02:48:05;;;;;;;7.50;4.00;;;;;;;;;;5113944;28;20261;-27
2023/07/27 02:50:31;;;;;;;7.20;3.33;;;;;;;;;;5114501;28;20024;-27
2023/07/27 02:52:56;;;;;;;8.00;3.53;;;;;;;;;;5114471;28;20732;-27
2023/07/27 02:55:21;;;;;;;8.87;3.30;;;;;;;;;;5114931;28;20262;-27
2023/07/27 02:57:46;;;;;;;6.63;3.23;;;;;;;;;;5114192;28;20350;-27
2023/07/27 03:00:12;;;;;;;5.67;3.37;;;;;;;;;;5114552;28;20269;-27
2023/07/27 03:02:37;;;;;;;5.68;3.33;;;;;;;;;;5095890;28;20265;-27
2023/07/27 03:05:04;;;;;;;9.40;3.20;;;;;;;;;;5114144;28;20016;-27
2023/07/27 03:07:29;;;;;;;6.07;3.58;;;;;;;;;;5114103;28;20386;-27
2023/07/27 03:09:55;;;;;;;6.55;3.38;;;;;;;;;;5114714;28;20008;-28
2023/07/27 03:12:20;;;;;;;7.13;3.50;;;;;;;;;;5114084;28;20020;-26
2023/07/27 03:14:45;;;;;;;5.37;3.50;;;;;;;;;;5114717;28;20030;-26
2023/07/27 03:17:10;;;;;;;6.80;3.90;;;;;;;;;;5114205;28;20261;-26
2023/07/27 03:19:35;;;;;;;7.27;3.37;;;;;;;;;;5113852;28;20326;-26
2023/07/27 03:22:00;;;;;;;5.70;3.13;;;;;;;;;;5114071;28;20117;-26
2023/07/27 03:24:26;;;;;;;5.77;3.20;;;;;;;;;;5113844;28;20827;-26
2023/07/27 03:26:52;;;;;;;9.93;3.63;;;;;;;;;;5113815;28;20298;-26
2023/07/27 03:29:17;;;;;;;7.93;3.72;;;;;;;;;;5113762;28;20019;-26
2023/07/27 03:31:42;;;;;;;5.70;3.40;;;;;;;;;;5114117;28;20027;-26
2023/07/27 03:34:07;;;;;;;6.10;3.30;;;;;;;;;;5114637;28;20261;-26
2023/07/27 03:36:33;;;;;;;6.30;3.60;;;;;;;;;;5095611;28;20299;-26
2023/07/27 03:38:58;;;;;;;6.43;3.47;;;;;;;;;;5114810;28;20052;-26
2023/07/27 03:41:23;;;;;;;4.55;2.97;;;;;;;;;;5113752;28;20605;-26
2023/07/27 03:43:48;;;;;;;4.47;3.20;;;;;;;;;;5113810;28;20351;-26
2023/07/27 03:46:13;;;;;;;5.57;3.00;;;;;;;;;;5113761;28;20241;-27
2023/07/27 03:48:39;;;;;;;5.68;3.35;;;;;;;;;;5113962;28;20260;-26
2023/07/27 03:51:04;;;;;;;5.05;3.00;;;;;;;;;;5113995;28;20099;-26
2023/07/27 03:53:29;;;;;;;5.65;3.42;;;;;;;;;;5113881;28;20043;-26
2023/07/27 03:55:55;;;;;;;6.88;3.42;;;;;;;;;;5113656;28;20374;-26
2023/07/27 03:58:20;;;;;;;6.50;3.60;;;;;;;;;;5113520;28;20028;-26
2023/07/27 04:00:45;;;;;;;6.82;3.92;;;;;;;;;;5117042;28;20012;-26
2023/07/27 04:03:10;;;;;;;8.50;3.95;;;;;;;;;;5118145;28;20020;-27
2023/07/27 04:05:35;;;;;;;5.83;3.83;;;;;;;;;;5117992;28;20453;-27
2023/07/27 04:08:01;;;;;;;7.07;4.15;;;;;;;;;;5117630;28;20269;-27
2023/07/27 04:10:26;;;;;;;8.73;4.60;;;;;;;;;;5117867;28;20023;-27
2023/07/27 04:12:51;;;;;;;6.90;4.57;;;;;;;;;;5117593;28;20245;-27
2023/07/27 04:15:17;;;;;;;9.50;4.68;;;;;;;;;;5117426;28;20254;-27
2023/07/27 04:17:42;;;;;;;8.88;4.90;;;;;;;;;;5117612;28;20027;-27
2023/07/27 04:20:08;;;;;;;9.13;5.10;;;;;;;;;;5117458;28;20462;-27
2023/07/27 04:22:33;;;;;;;8.07;5.07;;;;;;;;;;5117608;28;20261;-27
2023/07/27 04:24:58;;;;;;;7.07;4.83;;;;;;;;;;5117377;28;20470;-27
2023/07/27 04:27:23;;;;;;;7.50;4.90;;;;;;;;;;5117887;28;20249;-27
2023/07/27 04:29:49;;;;;;;9.27;5.20;;;;;;;;;;5117548;28;20084;-27
2023/07/27 04:32:14;;;;;;;9.40;5.50;;;;;;;;;;5117768;28;20103;-26
2023/07/27 04:34:39;;;;;;;12.73;5.43;;;;;;;;;;5117715;28;20588;-27
2023/07/27 04:37:04;;;;;;;9.07;5.20;;;;;;;;;;5116931;28;20261;-27
2023/07/27 04:39:30;;;;;;;9.90;6.18;;;;;;;;;;5117015;28;20281;-27
2023/07/27 04:41:55;;;;;;;11.50;6.40;;;;;;;;;;5117589;28;20016;-27
2023/07/27 04:44:20;;;;;;;7.87;5.63;;;;;;;;;;5117505;28;20034;-27
2023/07/27 04:46:45;;;;;;;9.80;5.80;;;;;;;;;;5117170;28;20253;-27
2023/07/27 04:49:10;;;;;;;9.53;6.50;;;;;;;;;;5116863;28;20016;-27
2023/07/27 04:51:36;;;;;;;9.35;6.00;;;;;;;;;;5117318;28;20265;-27
2023/07/27 04:54:01;;;;;;;9.20;5.80;;;;;;;;;;5116837;28;20027;-27
2023/07/27 04:56:27;;;;;;;10.35;6.13;;;;;;;;;;5116756;28;20716;-27
2023/07/27 04:58:52;;;;;;;11.23;6.77;;;;;;;;;;5116652;28;20065;-26
2023/07/27 05:01:17;;;;;;;10.73;6.50;;;;;;;;;;5117106;28;20323;-26
2023/07/27 05:03:43;;;;;;;11.07;7.00;;;;;;;;;;5117067;28;20661;-27
2023/07/27 05:06:08;;;;;;;9.07;6.65;;;;;;;;;;5116695;28;20023;-27
2023/07/27 05:08:33;;;;;;;13.57;7.00;;;;;;;;;;5116991;28;20092;-28
2023/07/27 05:10:58;;;;;;;11.65;7.47;;;;;;;;;;5116851;28;20011;-27
2023/07/27 05:13:24;;;;;;;13.60;7.53;;;;;;;;;;5117206;28;20480;-28
2023/07/27 05:15:49;;;;;;;12.05;7.85;;;;;;;;;;5116577;28;20072;-27
2023/07/27 05:18:14;;;;;;;11.90;7.07;;;;;;;;;;5098722;28;20397;-28
2023/07/27 05:20:40;;;;;;;14.75;8.52;;;;;;;;;;5116748;28;20262;-28
2023/07/27 05:23:05;;;;;;;12.20;7.13;;;;;;;;;;5116637;28;20028;-28
2023/07/27 05:25:30;;;;;;;12.00;6.70;;;;;;;;;;5098767;28;20509;-28
2023/07/27 05:27:56;;;;;;;11.50;6.80;;;;;;;;;;5116684;28;20023;-27
2023/07/27 05:30:21;;;;;;;11.65;7.10;;;;;;;;;;5116496;28;20102;-28
2023/07/27 05:32:46;;;;;;;11.82;6.47;;;;;;;;;;5116412;28;20064;-27
2023/07/27 05:35:11;;;;;;;10.57;6.47;;;;;;;;;;5117119;28;20103;-35
2023/07/27 05:37:37;;;;;;;10.25;6.32;;;;;;;;;;5097905;28;20051;-27
2023/07/27 05:40:04;;;;;;;8.75;6.05;;;;;;;;;;5116706;28;20054;-27
2023/07/27 05:42:29;;;;;;;10.18;5.80;;;;;;;;;;5116438;28;20056;-26
2023/07/27 05:44:55;;;;;;;10.85;6.22;;;;;;;;;;5116203;28;20008;-26
2023/07/27 05:47:20;;;;;;;9.63;5.93;;;;;;;;;;5115905;28;20016;-28
2023/07/27 05:49:46;;;;;;;7.40;5.47;;;;;;;;;;5115999;28;20019;-27
2023/07/27 05:52:11;;;;;;;11.02;5.63;;;;;;;;;;5115786;28;20363;-27
2023/07/27 05:54:36;;;;;;;8.15;5.45;;;;;;;;;;5115445;28;20494;-27
2023/07/27 05:57:01;;;;;;;8.18;5.55;;;;;;;;;;5115572;28;20020;-27
2023/07/27 05:59:27;;;;;;;8.45;5.18;;;;;;;;;;5115294;28;20084;-27
2023/07/27 06:01:52;;;;;;;9.00;5.30;;;;;;;;;;5115549;28;20065;-28
2023/07/27 06:04:18;;;;;;;7.70;4.87;;;;;;;;;;5115331;28;20058;-27
2023/07/27 06:06:45;;;;;;;6.00;4.38;;;;;;;;;;5115641;28;20090;-27
2023/07/27 06:09:10;;;;;;;6.95;4.60;;;;;;;;;;5115608;28;20027;-27
2023/07/27 06:11:35;;;;;;;7.07;4.68;;;;;;;;;;5115204;28;20388;-26
2023/07/27 06:14:00;;;;;;;11.27;4.80;;;;;;;;;;5115299;28;20020;-26
2023/07/27 06:16:26;;;;;;;8.10;4.70;;;;;;;;;;5115484;28;20049;-31
2023/07/27 06:18:52;;;;;;;7.15;4.57;;;;;;;;;;5096926;28;20803;-27
2023/07/27 06:21:18;;;;;;;6.10;4.35;;;;;;;;;;5096750;28;20023;-27
2023/07/27 06:23:43;;;;;;;7.70;5.18;;;;;;;;;;5114911;28;20501;-27
2023/07/27 06:26:08;;;;;;;6.83;4.40;;;;;;;;;;5115041;28;20098;-26
2023/07/27 06:28:35;;;;;;;6.17;4.17;;;;;;;;;;5115197;28;20277;-26
2023/07/27 06:31:01;;;;;;;9.40;4.13;;;;;;;;;;5114847;28;20308;-26
2023/07/27 06:33:26;;;;;;;11.60;4.43;;;;;;;;;;5114801;28;20051;-26
2023/07/27 06:35:51;;;;;;;5.97;4.33;;;;;;;;;;5114694;28;20023;-26
2023/07/27 06:38:17;;;;;;;6.57;4.23;;;;;;;;;;5114413;28;20289;-26
2023/07/27 06:40:42;;;;;;;7.25;3.80;;;;;;;;;;5114610;28;20250;-26
2023/07/27 06:43:07;;;;;;;6.10;4.13;;;;;;;;;;5114811;28;20012;-27
2023/07/27 06:45:34;;;;;;;5.03;3.67;;;;;;;;;;5114457;28;20288;-26
2023/07/27 06:47:59;;;;;;;5.25;3.83;;;;;;;;;;5096101;28;20269;-26
2023/07/27 06:50:24;;;;;;;5.30;3.75;;;;;;;;;;5114760;28;20023;-27
2023/07/27 06:52:49;;;;;;;5.80;3.97;;;;;;;;;;5114288;28;20062;-27
2023/07/27 06:55:14;;;;;;;6.38;3.80;;;;;;;;;;5114267;28;20027;-27
2023/07/27 06:57:40;;;;;;;5.40;3.72;;;;;;;;;;5114193;28;20123;-26
2023/07/27 07:00:06;;;;;;;3.92;3.03;;;;;;;;;;5114186;28;20054;-27
2023/07/27 07:02:31;;;;;;;5.47;3.63;;;;;;;;;;5114682;28;20031;-26
2023/07/27 07:04:56;;;;;;;6.47;3.25;;;;;;;;;;5114355;28;20011;-27
2023/07/27 07:07:21;;;;;;;6.60;3.27;;;;;;;;;;5114864;28;20020;-27
2023/07/27 07:09:46;;;;;;;7.10;3.50;;;;;;;;;;5114152;28;20012;-27
2023/07/27 07:12:12;;;;;;;4.37;3.33;;;;;;;;;;5114148;28;20338;-27
2023/07/27 07:14:37;;;;;;;5.35;3.30;;;;;;;;;;5114651;28;20284;-27
2023/07/27 07:17:03;;;;;;;3.85;2.90;;;;;;;;;;5114098;28;20015;-27
2023/07/27 07:19:28;;;;;;;3.67;2.85;;;;;;;;;;5114562;28;20039;-27
2023/07/27 07:21:53;;;;;;;4.97;2.90;;;;;;;;;;5114093;28;20073;-27
2023/07/27 07:24:18;;;;;;;3.70;2.73;;;;;;;;;;5114081;28;20310;-27
2023/07/27 07:26:45;;;;;;;4.38;2.50;;;;;;;;;;5113914;28;20268;-27
2023/07/27 07:29:10;;;;;;;4.50;2.85;;;;;;;;;;5114540;28;20107;-27
2023/07/27 07:31:35;;;;;;;5.07;2.42;;;;;;;;;;5114162;28;20051;-27
2023/07/27 07:34:00;;;;;;;6.03;2.33;;;;;;;;;;5113716;28;20024;-27
2023/07/27 07:36:26;;;;;;;3.47;2.50;;;;;;;;;;5114487;28;20015;-26
2023/07/27 07:38:51;;;;;;;3.33;2.58;;;;;;;;;;5113569;28;20297;-27
2023/07/27 07:41:16;;;;;;;3.22;2.60;;;;;;;;;;5095500;28;20015;-27
2023/07/27 07:43:41;;;;;;;3.27;2.60;;;;;;;;;;5114325;28;20037;-28
2023/07/27 07:46:10;;;;;;;6.17;3.00;;;;;;;;;;5114388;28;20241;-27
2023/07/27 07:48:35;;;;;;;5.38;2.80;;;;;;;;;;5113682;28;20085;-27
2023/07/27 07:51:00;;;;;;;3.60;2.70;;;;;;;;;;5114138;28;20046;-27
2023/07/27 07:53:26;;;;;;;4.47;2.67;;;;;;;;;;5113522;28;20256;-27
2023/07/27 07:55:51;;;;;;;5.20;2.63;;;;;;;;;;5114052;28;20023;-26
2023/07/27 07:58:16;;;;;;;3.10;2.50;;;;;;;;;;5113431;28;20282;-27
2023/07/27 08:00:42;;;;;;;4.15;2.38;;;;;;;;;;5113499;28;20246;-27
2023/07/27 08:03:07;;;;;;;4.63;2.15;;;;;;;;;;5113559;28;20023;-27
2023/07/27 08:05:32;;;;;;;4.27;3.27;;;;;;;;;;5113451;28;20496;-26
2023/07/27 08:07:58;;;;;;;2.83;1.83;;;;;;;;;;5113703;28;20034;-27
2023/07/27 08:10:24;;;;;;;2.70;1.90;;;;;;;;;;5113985;28;20028;-27
2023/07/27 08:12:50;;;;;;;2.53;1.90;;;;;;;;;;5113289;28;20262;-26
2023/07/27 08:15:15;;;;;;;3.10;1.80;;;;;;;;;;5113912;28;20019;-27
2023/07/27 08:17:41;;;;;;;4.38;1.73;;;;;;;;;;5096006;28;20028;-28
2023/07/27 08:20:06;;;;;;;2.22;1.58;;;;;;;;;;5113550;28;20041;-27
2023/07/27 08:22:32;;;;;;;3.63;1.70;;;;;;;;;;5113795;28;20425;-27
2023/07/27 08:24:57;;;;;;;3.38;1.70;;;;;;;;;;5113135;28;20080;-27
2023/07/27 08:27:22;;;;;;;6.87;1.70;;;;;;;;;;5113238;28;20016;-27
2023/07/27 08:29:47;;;;;;;5.27;1.80;;;;;;;;;;5113061;28;20686;-27
2023/07/27 08:32:12;;;;;;;3.37;1.80;;;;;;;;;;5113286;28;20724;-27
2023/07/27 08:34:38;;;;;;;4.47;1.87;;;;;;;;;;5113296;28;20258;-27
2023/07/27 08:37:03;;;;;;;3.70;1.85;;;;;;;;;;5094890;28;20023;-27
2023/07/27 08:39:28;;;;;;;4.65;1.85;;;;;;;;;;5113179;28;20036;-27
2023/07/27 08:41:54;;;;;;;3.70;1.65;;;;;;;;;;5113480;28;20091;-26
2023/07/27 08:44:19;;;;;;;3.65;1.60;;;;;;;;;;5113089;28;20026;-26
2023/07/27 08:46:45;;;;;;;3.38;1.35;;;;;;;;;;5115943;28;20023;-26
2023/07/27 08:49:12;;;;;;;5.72;1.90;;;;;;;;;;5116158;28;20044;-26
2023/07/27 08:51:39;;;;;;;3.30;1.70;;;;;;;;;;5115416;28;20020;-26
2023/07/27 08:54:04;;;;;;;5.70;1.60;;;;;;;;;;5116507;28;20627;-27
2023/07/27 08:56:30;;;;;;;3.78;1.60;;;;;;;;;;5116213;28;20016;-26
2023/07/27 08:58:55;;;;;;;3.63;1.30;;;;;;;;;;5115882;28;20374;-26
2023/07/27 09:01:20;;;;;;;3.13;1.30;;;;;;;;;;5114207;28;20069;-26
2023/07/27 09:03:46;;;;;;;2.17;1.20;;;;;;;;;;5114459;28;20285;-26
2023/07/27 09:06:12;;;;;;;2.90;1.30;;;;;;;;;;5096038;28;20015;-27
2023/07/27 09:08:37;;;;;;;2.67;1.35;;;;;;;;;;5114527;28;20028;-26
2023/07/27 09:11:06;;;;;;;2.42;1.30;;;;;;;;;;5114446;28;20023;-26
2023/07/27 09:13:31;;;;;;;2.38;1.23;;;;;;;;;;5114170;28;20028;-26
2023/07/27 09:15:57;;;;;;;1.95;1.40;;;;;;;;;;5114260;28;20065;-27
2023/07/27 09:18:23;;;;;;;3.30;1.25;;;;;;;;;;5115981;28;20382;-26
2023/07/27 09:20:48;;;;;;;3.75;1.45;;;;;;;;;;5116950;28;20020;-26
2023/07/27 09:23:20;;;;;;;3.63;1.23;;;;;;;;;;5116320;28;20020;-26
2023/07/27 09:25:53;;;;;;;3.83;1.48;;;;;;;;;;5098011;28;20288;-27
2023/07/27 09:28:25;;;;;;;2.75;1.20;;;;;;;;;;5097868;28;20023;-26
2023/07/27 09:30:51;;;;;;;3.42;1.52;;;;;;;;;;5096957;28;20032;-27
2023/07/27 09:33:20;;;;;;;4.00;1.40;;;;;;;;;;5097609;28;20474;-27
2023/07/27 09:35:48;;;;;;;3.10;1.33;;;;;;;;;;5115968;28;20112;-27
2023/07/27 09:38:13;;;;;;;2.40;1.20;;;;;;;;;;5114817;28;20046;-27
2023/07/27 09:40:38;;;;;;;2.73;1.40;;;;;;;;;;5114136;28;20011;-27
2023/07/27 09:43:07;;;;;;;2.30;1.13;;;;;;;;;;5095264;28;20265;-27
2023/07/27 09:45:37;;;;;;;2.85;1.00;;;;;;;;;;5113568;28;20352;-27
2023/07/27 09:48:02;;;;;;;2.25;1.17;;;;;;;;;;5114668;28;20303;-27
2023/07/27 09:50:28;;;;;;;3.83;1.10;;;;;;;;;;5114466;28;20019;-26
2023/07/27 09:52:54;;;;;;;4.53;0.98;;;;;;;;;;5114362;28;20095;-27
2023/07/27 09:55:19;;;;;;;3.00;0.77;;;;;;;;;;5115598;28;20534;-27
2023/07/27 09:57:45;;;;;;;3.63;1.20;;;;;;;;;;5115504;28;20015;-27
2023/07/27 10:00:11;;;;;;;2.08;1.00;;;;;;;;;;5115291;28;20018;-27
2023/07/27 10:02:36;;;;;;;1.33;0.88;;;;;;;;;;5114977;28;20024;-27
2023/07/27 10:05:03;;;;;;;3.87;1.10;;;;;;;;;;5115166;28;20034;-27
2023/07/27 10:07:28;;;;;;;4.47;1.27;;;;;;;;;;5115669;28;20293;-27
2023/07/27 10:10:12;;;;;;;7.18;1.50;;;;;;;;;;5115337;28;20478;-29
2023/07/27 10:12:38;;;;;;;2.53;1.20;;;;;;;;;;5115279;28;20055;-27
2023/07/27 10:15:24;;;;;;;4.35;1.40;;;;;;;;;;5115278;28;20047;-27
2023/07/27 10:17:50;;;;;;;3.70;1.42;;;;;;;;;;5115046;28;20458;-27
2023/07/27 10:20:19;;;;;;;2.58;1.10;;;;;;;;;;5115343;28;20076;-26
2023/07/27 10:22:49;;;;;;;3.55;1.30;;;;;;;;;;5115138;28;20080;-27
2023/07/27 10:25:15;;;;;;;2.47;1.30;;;;;;;;;;5079969;28;20073;-27
2023/07/27 10:27:53;;;;;;;2.85;1.25;;;;;;;;;;5115437;28;20027;-33
2023/07/27 10:30:18;;;;;;;2.20;1.20;;;;;;;;;;5115522;28;20111;-26
2023/07/27 10:33:04;;;;;;;2.42;1.00;;;;;;;;;;5115174;28;20059;-26
2023/07/27 10:35:30;;;;;;;2.10;1.00;;;;;;;;;;5114741;28;20497;-26
2023/07/27 10:37:55;;;;;;;1.88;1.02;;;;;;;;;;5096398;28;20101;-27
2023/07/27 10:40:24;;;;;;;2.93;1.00;;;;;;;;;;5115310;28;20023;-27
2023/07/27 10:42:55;;;;;;;2.88;1.08;;;;;;;;;;5096378;28;20486;-27
2023/07/27 10:45:27;;;;;;;2.03;0.80;;;;;;;;;;5114910;28;20012;-26
2023/07/27 10:47:56;;;;;;;1.55;0.80;;;;;;;;;;5114586;28;20016;-26
2023/07/27 10:50:21;;;;;;;0.95;0.70;;;;;;;;;;5096324;28;20026;-26
2023/07/27 10:52:46;;;;;;;1.93;0.60;;;;;;;;;;5115133;28;20408;-26
2023/07/27 10:55:13;;;;;;;2.25;0.70;;;;;;;;;;5114717;28;20057;-27
2023/07/27 10:57:38;;;;;;;2.53;0.85;;;;;;;;;;5114391;28;20023;-27
2023/07/27 11:00:07;;;;;;;1.25;0.70;;;;;;;;;;5114398;28;20023;-27
2023/07/27 11:02:32;;;;;;;0.95;0.75;;;;;;;;;;5114519;28;20019;-27
2023/07/27 11:04:58;;;;;;;2.28;0.85;;;;;;;;;;5114571;28;20416;-27
2023/07/27 11:07:34;;;;;;;1.90;0.90;;;;;;;;;;5114184;28;20042;-27
2023/07/27 11:10:04;;;;;;;1.65;1.00;;;;;;;;;;5113902;28;20035;-27
2023/07/27 11:12:29;;;;;;;2.53;1.30;;;;;;;;;;5114166;28;20362;-27
2023/07/27 11:15:12;;;;;;;3.30;1.48;;;;;;;;;;5114545;28;20035;-28
2023/07/27 11:17:37;;;;;;;3.92;1.67;;;;;;;;;;5113838;28;20023;-27
2023/07/27 11:20:03;;;;;;;4.10;1.30;;;;;;;;;;5114595;28;20007;-27
2023/07/27 11:22:29;;;;;;;5.30;1.38;;;;;;;;;;5114285;28;20068;-27
2023/07/27 11:24:54;;;;;;;2.08;1.38;;;;;;;;;;5114054;28;20024;-27
2023/07/27 11:27:20;;;;;;;6.07;1.50;;;;;;;;;;5113954;28;20016;-26
2023/07/27 11:29:46;;;;;;;3.33;1.45;;;;;;;;;;5114450;28;20408;-26
2023/07/27 11:32:11;;;;;;;5.82;1.50;;;;;;;;;;5113969;28;20073;-26
2023/07/27 11:34:37;;;;;;;2.63;1.20;;;;;;;;;;5114202;28;20015;-26
2023/07/27 11:37:02;;;;;;;3.42;1.65;;;;;;;;;;5113897;28;20273;-27
2023/07/27 11:39:27;;;;;;;4.95;1.98;;;;;;;;;;5113965;28;20020;-26
2023/07/27 11:41:53;;;;;;;2.42;1.30;;;;;;;;;;5113712;28;20019;-26
2023/07/27 11:44:22;;;;;;;2.17;1.13;;;;;;;;;;5113385;28;20019;-27
2023/07/27 11:46:50;;;;;;;3.15;1.40;;;;;;;;;;5113620;28;20017;-27
2023/07/27 11:49:16;;;;;;;3.35;1.50;;;;;;;;;;5113685;28;20023;-27
2023/07/27 11:51:41;;;;;;;2.55;1.50;;;;;;;;;;5114080;28;20023;-27
2023/07/27 11:54:07;;;;;;;3.38;1.23;;;;;;;;;;5078725;28;20382;-27
2023/07/27 11:56:36;;;;;;;5.85;1.40;;;;;;;;;;5113748;28;20028;-27
2023/07/27 11:59:03;;;;;;;3.90;1.10;;;;;;;;;;5095440;28;20027;-28
2023/07/27 12:01:28;;;;;;;3.42;1.10;;;;;;;;;;5095336;28;20012;-27
2023/07/27 12:03:53;;;;;;;2.67;1.48;;;;;;;;;;5095040;28;20031;-27
2023/07/27 12:06:24;;;;;;;3.13;1.13;;;;;;;;;;5113634;28;20016;-27
2023/07/27 12:08:51;;;;;;;3.83;1.77;;;;;;;;;;5113697;28;20439;-27
2023/07/27 12:11:16;;;;;;;2.90;1.50;;;;;;;;;;5095468;28;20027;-27
2023/07/27 12:13:43;;;;;;;2.95;1.65;;;;;;;;;;5078293;28;20027;-27
2023/07/27 12:16:08;;;;;;;3.30;1.63;;;;;;;;;;5113425;28;20027;-27
2023/07/27 12:18:33;;;;;;;6.00;1.65;;;;;;;;;;5114502;28;20027;-27
2023/07/27 12:20:59;;;;;;;4.50;1.60;;;;;;;;;;5115217;28;20563;-27
2023/07/27 12:23:25;;;;;;;1.50;1.40;;;;;;;;;;5117417;28;20299;-27
2023/07/27 12:25:52;;;;;;;3.22;1.52;;;;;;;;;;5117200;28;20125;-27
2023/07/27 12:28:17;;;;;;;3.65;1.52;;;;;;;;;;5117274;28;20016;-27
2023/07/27 12:30:43;;;;;;;2.67;1.20;;;;;;;;;;5117862;28;20011;-27
2023/07/27 12:33:08;;;;;;;2.53;1.42;;;;;;;;;;5117251;28;20470;-27
2023/07/27 12:35:34;;;;;;;3.05;0.93;;;;;;;;;;5117722;28;20362;-27
2023/07/27 12:37:59;;;;;;;4.75;1.50;;;;;;;;;;5116889;28;20556;-27
2023/07/27 12:40:25;;;;;;;2.78;1.30;;;;;;;;;;5116987;28;20019;-27
2023/07/27 12:42:50;;;;;;;4.78;1.73;;;;;;;;;;5116637;28;20016;-27
2023/07/27 12:45:15;;;;;;;3.77;1.30;;;;;;;;;;5115458;28;20047;-27
2023/07/27 12:47:42;;;;;;;2.60;1.25;;;;;;;;;;5115582;28;20282;-27
2023/07/27 12:50:08;;;;;;;1.92;1.10;;;;;;;;;;5117047;28;20065;-27
2023/07/27 12:52:33;;;;;;;1.95;1.27;;;;;;;;;;5116713;28;20390;-26
2023/07/27 12:54:58;;;;;;;3.43;1.43;;;;;;;;;;5117029;28;20055;-27
2023/07/27 12:57:23;;;;;;;2.47;1.07;;;;;;;;;;5116727;28;20008;-27
2023/07/27 12:59:49;;;;;;;1.13;1.03;;;;;;;;;;5116613;28;20024;-27
2023/07/27 13:02:14;;;;;;;1.57;1.20;;;;;;;;;;5116527;28;20382;-27
2023/07/27 13:04:39;;;;;;;1.90;1.27;;;;;;;;;;5116545;28;20264;-27
2023/07/27 13:07:07;;;;;;;1.33;1.23;;;;;;;;;;5117067;28;20016;-27
2023/07/27 13:09:32;;;;;;;4.80;1.50;;;;;;;;;;5116788;28;20024;-26
2023/07/27 13:11:57;;;;;;;4.83;1.60;;;;;;;;;;5116513;28;20107;-26
2023/07/27 13:14:22;;;;;;;6.27;1.67;;;;;;;;;;5116668;28;20027;-27
2023/07/27 13:16:47;;;;;;;3.63;1.65;;;;;;;;;;5117072;28;20375;-26
2023/07/27 13:19:13;;;;;;;4.03;1.47;;;;;;;;;;5116797;28;20023;-27
2023/07/27 13:21:38;;;;;;;2.57;1.20;;;;;;;;;;5115982;28;20269;-26
2023/07/27 13:24:03;;;;;;;3.28;1.45;;;;;;;;;;5117320;28;20626;-27
2023/07/27 13:26:29;;;;;;;2.72;1.48;;;;;;;;;;5097809;28;20531;-27
2023/07/27 13:28:54;;;;;;;4.88;1.20;;;;;;;;;;5115758;28;20378;-27
2023/07/27 13:31:22;;;;;;;3.10;1.30;;;;;;;;;;5115644;28;20027;-27
2023/07/27 13:33:48;;;;;;;3.42;1.50;;;;;;;;;;5116166;28;20352;-27
2023/07/27 13:36:13;;;;;;;2.15;1.55;;;;;;;;;;5115659;28;20051;-27
2023/07/27 13:38:38;;;;;;;3.30;1.47;;;;;;;;;;5115819;28;20058;-27
2023/07/27 13:41:04;;;;;;;2.40;1.73;;;;;;;;;;5097450;28;20256;-27
2023/07/27 13:43:29;;;;;;;3.35;1.90;;;;;;;;;;5115856;28;20068;-26
2023/07/27 13:45:54;;;;;;;4.60;1.90;;;;;;;;;;5115766;28;20034;-27
2023/07/27 13:48:20;;;;;;;5.10;2.35;;;;;;;;;;5116518;28;20070;-27
2023/07/27 13:50:45;;;;;;;4.03;2.20;;;;;;;;;;5116336;28;20030;-27
2023/07/27 13:53:10;;;;;;;4.13;2.43;;;;;;;;;;5115674;28;20612;-27
2023/07/27 13:55:35;;;;;;;4.03;2.37;;;;;;;;;;5115654;28;20249;-26
2023/07/27 13:58:00;;;;;;;6.93;3.28;;;;;;;;;;5115789;28;20045;-26
2023/07/27 14:00:26;;;;;;;8.50;3.47;;;;;;;;;;5115589;28;20011;-26
2023/07/27 14:02:51;;;;;;;8.13;3.90;;;;;;;;;;5115947;28;20020;-26
2023/07/27 14:05:17;;;;;;;8.50;4.13;;;;;;;;;;5115690;28;20262;-26
2023/07/27 14:07:43;;;;;;;9.43;3.95;;;;;;;;;;5115618;28;20016;-27
2023/07/27 14:10:08;;;;;;;9.07;4.30;;;;;;;;;;5115444;28;20466;-27
2023/07/27 14:12:34;;;;;;;9.10;3.97;;;;;;;;;;5115246;28;20751;-27
2023/07/27 14:14:59;;;;;;;8.45;4.18;;;;;;;;;;5115318;28;20033;-27
2023/07/27 14:17:24;;;;;;;9.90;4.25;;;;;;;;;;5115171;28;20023;-26
2023/07/27 14:19:49;;;;;;;10.43;4.20;;;;;;;;;;5115041;28;20106;-26
2023/07/27 14:22:15;;;;;;;8.95;4.45;;;;;;;;;;5115308;28;20027;-27
2023/07/27 14:24:40;;;;;;;13.13;4.63;;;;;;;;;;5097096;28;20021;-26
2023/07/27 14:27:06;;;;;;;14.70;4.80;;;;;;;;;;5115073;28;20447;-26
2023/07/27 14:29:31;;;;;;;12.98;3.97;;;;;;;;;;5096706;28;20028;-27
2023/07/27 14:31:56;;;;;;;11.20;4.17;;;;;;;;;;5114914;28;20012;-26
2023/07/27 14:34:21;;;;;;;15.93;4.17;;;;;;;;;;5115186;28;20322;-26